首页
METAR-TAF:

METAR-TAF

机场 :

Medicine Lodge Airport

Medicine Lodge, 堪薩斯州, 美国

纬度: 37-17-02N, 经度: 098-33-10W, 海拔: 469米

当前天气观测

该预报发布于55分钟前的16:56 UTC
风速11节,风向南转南东,有时为19节阵风
温度 32°C
湿度 49%
气压 1012 hPa

METAR: KP28 151656Z AUTO 16011G19KT 32/20 A2988 RMK AO1 SLP097 T03220200 $

时间: 12:51 (17:51 UTC)


TAF: 丢失

超过4000个机场的气象观测和天气预报(METAR&TAF报告)。

可查询的气象台以黄色和红色小点在地图上表示。

将鼠标移到小点上方,可查看气象台名称。

然后点击查看天气观测和预报。

如需切换地图:点击带黑十字的绿色按钮放大地图;点击带横线的绿色按钮缩小地图;或者点击绿色箭头查看邻近地区的地图。


METAR-TAF: